sensor_id;sensor_type;location;lat;lon;timestamp;P1;durP1;ratioP1;P2;durP2;ratioP2
71462;SDS011;59266;52.608;13.260;2023-07-24T00:02:17;5.82;;;2.20;;
71462;SDS011;59266;52.608;13.260;2023-07-24T00:04:46;6.38;;;2.72;;
71462;SDS011;59266;52.608;13.260;2023-07-24T00:07:12;6.20;;;2.40;;
71462;SDS011;59266;52.608;13.260;2023-07-24T00:09:41;7.03;;;2.50;;
71462;SDS011;59266;52.608;13.260;2023-07-24T00:12:08;11.52;;;2.60;;
71462;SDS011;59266;52.608;13.260;2023-07-24T00:14:36;6.90;;;2.72;;
71462;SDS011;59266;52.608;13.260;2023-07-24T00:17:03;8.40;;;2.55;;
71462;SDS011;59266;52.608;13.260;2023-07-24T00:19:30;6.53;;;2.65;;
71462;SDS011;59266;52.608;13.260;2023-07-24T00:21:57;6.15;;;2.67;;
71462;SDS011;59266;52.608;13.260;2023-07-24T00:24:24;6.63;;;2.90;;
71462;SDS011;59266;52.608;13.260;2023-07-24T00:26:51;6.47;;;2.60;;
71462;SDS011;59266;52.608;13.260;2023-07-24T00:29:18;7.85;;;2.38;;
71462;SDS011;59266;52.608;13.260;2023-07-24T00:34:15;6.03;;;2.03;;
71462;SDS011;59266;52.608;13.260;2023-07-24T00:36:42;9.38;;;2.60;;
71462;SDS011;59266;52.608;13.260;2023-07-24T00:39:08;6.72;;;2.38;;
71462;SDS011;59266;52.608;13.260;2023-07-24T00:41:35;6.85;;;2.10;;
71462;SDS011;59266;52.608;13.260;2023-07-24T00:44:02;6.45;;;2.40;;
71462;SDS011;59266;52.608;13.260;2023-07-24T00:46:34;5.97;;;2.03;;
71462;SDS011;59266;52.608;13.260;2023-07-24T00:49:03;7.05;;;2.15;;
71462;SDS011;59266;52.608;13.260;2023-07-24T00:51:31;6.72;;;2.30;;
71462;SDS011;59266;52.608;13.260;2023-07-24T00:54:01;7.22;;;2.55;;
71462;SDS011;59266;52.608;13.260;2023-07-24T00:56:28;8.68;;;2.20;;
71462;SDS011;59266;52.608;13.260;2023-07-24T00:58:57;7.47;;;2.20;;
71462;SDS011;59266;52.608;13.260;2023-07-24T01:01:25;6.50;;;2.35;;
71462;SDS011;59266;52.608;13.260;2023-07-24T01:03:53;6.90;;;2.38;;
71462;SDS011;59266;52.608;13.260;2023-07-24T01:06:22;5.75;;;2.20;;
71462;SDS011;59266;52.608;13.260;2023-07-24T01:08:53;5.72;;;2.45;;
71462;SDS011;59266;52.608;13.260;2023-07-24T01:11:21;6.22;;;2.58;;
71462;SDS011;59266;52.608;13.260;2023-07-24T01:13:57;6.85;;;2.40;;
71462;SDS011;59266;52.608;13.260;2023-07-24T01:16:36;6.28;;;2.40;;
71462;SDS011;59266;52.608;13.260;2023-07-24T01:19:07;7.00;;;2.53;;
71462;SDS011;59266;52.608;13.260;2023-07-24T01:21:44;5.38;;;2.22;;
71462;SDS011;59266;52.608;13.260;2023-07-24T01:24:29;6.03;;;2.22;;
71462;SDS011;59266;52.608;13.260;2023-07-24T01:27:02;5.75;;;2.10;;
71462;SDS011;59266;52.608;13.260;2023-07-24T01:29:29;5.95;;;2.40;;
71462;SDS011;59266;52.608;13.260;2023-07-24T01:31:56;6.47;;;2.40;;
71462;SDS011;59266;52.608;13.260;2023-07-24T01:34:22;6.25;;;2.42;;
71462;SDS011;59266;52.608;13.260;2023-07-24T01:36:49;10.48;;;2.50;;
71462;SDS011;59266;52.608;13.260;2023-07-24T01:39:17;6.25;;;2.30;;
71462;SDS011;59266;52.608;13.260;2023-07-24T01:41:46;5.80;;;2.17;;
71462;SDS011;59266;52.608;13.260;2023-07-24T01:44:13;6.13;;;2.30;;
71462;SDS011;59266;52.608;13.260;2023-07-24T01:46:40;5.72;;;2.13;;
71462;SDS011;59266;52.608;13.260;2023-07-24T01:49:07;6.03;;;2.45;;
71462;SDS011;59266;52.608;13.260;2023-07-24T01:51:34;5.80;;;2.30;;
71462;SDS011;59266;52.608;13.260;2023-07-24T01:54:01;6.22;;;2.40;;
71462;SDS011;59266;52.608;13.260;2023-07-24T01:56:28;6.65;;;2.40;;
71462;SDS011;59266;52.608;13.260;2023-07-24T01:58:56;7.25;;;2.80;;
71462;SDS011;59266;52.608;13.260;2023-07-24T02:01:26;6.68;;;2.30;;
71462;SDS011;59266;52.608;13.260;2023-07-24T02:03:57;6.15;;;2.17;;
71462;SDS011;59266;52.608;13.260;2023-07-24T02:06:23;7.45;;;2.33;;
71462;SDS011;59266;52.608;13.260;2023-07-24T02:08:50;6.10;;;2.33;;
71462;SDS011;59266;52.608;13.260;2023-07-24T02:11:19;6.88;;;2.80;;
71462;SDS011;59266;52.608;13.260;2023-07-24T02:13:49;6.03;;;2.20;;
71462;SDS011;59266;52.608;13.260;2023-07-24T02:16:15;6.45;;;2.40;;
71462;SDS011;59266;52.608;13.260;2023-07-24T02:18:42;9.48;;;2.65;;
71462;SDS011;59266;52.608;13.260;2023-07-24T02:21:09;7.80;;;2.20;;
71462;SDS011;59266;52.608;13.260;2023-07-24T02:23:36;5.78;;;2.00;;
71462;SDS011;59266;52.608;13.260;2023-07-24T02:26:02;6.97;;;1.90;;
71462;SDS011;59266;52.608;13.260;2023-07-24T02:28:29;7.90;;;2.17;;
71462;SDS011;59266;52.608;13.260;2023-07-24T02:30:59;6.70;;;2.08;;
71462;SDS011;59266;52.608;13.260;2023-07-24T02:33:26;6.30;;;2.40;;
71462;SDS011;59266;52.608;13.260;2023-07-24T02:35:53;7.85;;;1.90;;
71462;SDS011;59266;52.608;13.260;2023-07-24T02:38:21;6.05;;;2.25;;
71462;SDS011;59266;52.608;13.260;2023-07-24T02:40:48;5.63;;;1.90;;
71462;SDS011;59266;52.608;13.260;2023-07-24T02:43:18;7.10;;;2.22;;
71462;SDS011;59266;52.608;13.260;2023-07-24T02:45:44;6.93;;;2.08;;
71462;SDS011;59266;52.608;13.260;2023-07-24T02:48:11;5.43;;;1.77;;
71462;SDS011;59266;52.608;13.260;2023-07-24T02:50:39;6.50;;;1.98;;
71462;SDS011;59266;52.608;13.260;2023-07-24T02:53:06;6.50;;;2.00;;
71462;SDS011;59266;52.608;13.260;2023-07-24T02:55:33;5.80;;;1.77;;
71462;SDS011;59266;52.608;13.260;2023-07-24T02:58:01;5.00;;;1.85;;
71462;SDS011;59266;52.608;13.260;2023-07-24T03:00:29;5.35;;;1.83;;
71462;SDS011;59266;52.608;13.260;2023-07-24T03:02:58;5.43;;;1.92;;
71462;SDS011;59266;52.608;13.260;2023-07-24T03:05:25;5.70;;;1.83;;
71462;SDS011;59266;52.608;13.260;2023-07-24T03:07:56;6.75;;;1.90;;
71462;SDS011;59266;52.608;13.260;2023-07-24T03:10:23;5.93;;;1.90;;
71462;SDS011;59266;52.608;13.260;2023-07-24T03:12:51;6.20;;;2.00;;
71462;SDS011;59266;52.608;13.260;2023-07-24T03:15:18;6.90;;;1.70;;
71462;SDS011;59266;52.608;13.260;2023-07-24T03:17:45;6.00;;;1.75;;
71462;SDS011;59266;52.608;13.260;2023-07-24T03:20:14;5.53;;;2.00;;
71462;SDS011;59266;52.608;13.260;2023-07-24T03:22:42;5.82;;;2.20;;
71462;SDS011;59266;52.608;13.260;2023-07-24T03:25:10;4.93;;;1.88;;
71462;SDS011;59266;52.608;13.260;2023-07-24T03:27:36;5.80;;;2.08;;
71462;SDS011;59266;52.608;13.260;2023-07-24T03:30:04;8.75;;;2.03;;
71462;SDS011;59266;52.608;13.260;2023-07-24T03:32:32;5.00;;;1.80;;
71462;SDS011;59266;52.608;13.260;2023-07-24T03:34:59;5.53;;;1.85;;
71462;SDS011;59266;52.608;13.260;2023-07-24T03:37:26;5.40;;;1.70;;
71462;SDS011;59266;52.608;13.260;2023-07-24T03:39:53;5.68;;;2.08;;
71462;SDS011;59266;52.608;13.260;2023-07-24T03:42:30;4.40;;;1.60;;
71462;SDS011;59266;52.608;13.260;2023-07-24T03:44:58;4.93;;;1.70;;
71462;SDS011;59266;52.608;13.260;2023-07-24T03:47:28;4.93;;;1.60;;
71462;SDS011;59266;52.608;13.260;2023-07-24T03:49:54;5.13;;;1.77;;
71462;SDS011;59266;52.608;13.260;2023-07-24T03:52:22;4.85;;;1.80;;
71462;SDS011;59266;52.608;13.260;2023-07-24T03:54:49;6.03;;;1.80;;
71462;SDS011;59266;52.608;13.260;2023-07-24T03:57:17;4.63;;;1.80;;
71462;SDS011;59266;52.608;13.260;2023-07-24T03:59:43;5.78;;;1.80;;
71462;SDS011;59266;52.608;13.260;2023-07-24T04:02:11;5.20;;;1.98;;
71462;SDS011;59266;52.608;13.260;2023-07-24T04:04:37;5.50;;;2.10;;
71462;SDS011;59266;52.608;13.260;2023-07-24T04:07:07;4.68;;;1.60;;
71462;SDS011;59266;52.608;13.260;2023-07-24T04:09:34;6.22;;;1.77;;
71462;SDS011;59266;52.608;13.260;2023-07-24T04:12:01;5.95;;;1.52;;
71462;SDS011;59266;52.608;13.260;2023-07-24T04:14:27;4.03;;;1.50;;
71462;SDS011;59266;52.608;13.260;2023-07-24T04:16:54;4.20;;;1.58;;
71462;SDS011;59266;52.608;13.260;2023-07-24T04:19:24;5.03;;;1.67;;
71462;SDS011;59266;52.608;13.260;2023-07-24T04:21:51;4.75;;;1.60;;
71462;SDS011;59266;52.608;13.260;2023-07-24T04:24:18;5.28;;;1.60;;
71462;SDS011;59266;52.608;13.260;2023-07-24T04:26:45;6.00;;;1.67;;
71462;SDS011;59266;52.608;13.260;2023-07-24T04:29:12;9.02;;;1.70;;
71462;SDS011;59266;52.608;13.260;2023-07-24T04:31:39;4.55;;;1.67;;
71462;SDS011;59266;52.608;13.260;2023-07-24T04:34:05;6.70;;;1.70;;
71462;SDS011;59266;52.608;13.260;2023-07-24T04:36:32;4.90;;;1.50;;
71462;SDS011;59266;52.608;13.260;2023-07-24T04:38:59;7.55;;;1.80;;
71462;SDS011;59266;52.608;13.260;2023-07-24T04:41:26;5.40;;;1.63;;
71462;SDS011;59266;52.608;13.260;2023-07-24T04:43:53;5.45;;;1.80;;
71462;SDS011;59266;52.608;13.260;2023-07-24T04:46:21;4.75;;;1.73;;
71462;SDS011;59266;52.608;13.260;2023-07-24T04:48:48;5.50;;;1.60;;
71462;SDS011;59266;52.608;13.260;2023-07-24T04:51:17;4.90;;;1.73;;
71462;SDS011;59266;52.608;13.260;2023-07-24T04:53:45;5.15;;;1.65;;
71462;SDS011;59266;52.608;13.260;2023-07-24T04:56:13;4.57;;;1.52;;
71462;SDS011;59266;52.608;13.260;2023-07-24T04:58:40;5.28;;;1.70;;
71462;SDS011;59266;52.608;13.260;2023-07-24T05:01:08;4.68;;;1.65;;
71462;SDS011;59266;52.608;13.260;2023-07-24T05:03:38;4.45;;;1.42;;
71462;SDS011;59266;52.608;13.260;2023-07-24T05:06:04;5.03;;;1.73;;
71462;SDS011;59266;52.608;13.260;2023-07-24T05:08:31;6.22;;;1.75;;
71462;SDS011;59266;52.608;13.260;2023-07-24T05:10:58;5.82;;;1.70;;
71462;SDS011;59266;52.608;13.260;2023-07-24T05:13:27;4.95;;;1.63;;
71462;SDS011;59266;52.608;13.260;2023-07-24T05:15:54;5.90;;;1.88;;
71462;SDS011;59266;52.608;13.260;2023-07-24T05:18:22;4.22;;;1.40;;
71462;SDS011;59266;52.608;13.260;2023-07-24T05:20:51;4.15;;;1.30;;
71462;SDS011;59266;52.608;13.260;2023-07-24T05:23:18;5.55;;;1.30;;
71462;SDS011;59266;52.608;13.260;2023-07-24T05:25:45;4.05;;;1.15;;
71462;SDS011;59266;52.608;13.260;2023-07-24T05:28:12;6.07;;;1.63;;
71462;SDS011;59266;52.608;13.260;2023-07-24T05:30:38;5.15;;;1.58;;
71462;SDS011;59266;52.608;13.260;2023-07-24T05:33:07;3.20;;;1.30;;
71462;SDS011;59266;52.608;13.260;2023-07-24T05:35:34;5.03;;;1.40;;
71462;SDS011;59266;52.608;13.260;2023-07-24T05:38:03;5.03;;;1.65;;
71462;SDS011;59266;52.608;13.260;2023-07-24T05:40:32;3.90;;;1.38;;
71462;SDS011;59266;52.608;13.260;2023-07-24T05:42:59;4.68;;;1.30;;
71462;SDS011;59266;52.608;13.260;2023-07-24T05:45:26;3.75;;;1.30;;
71462;SDS011;59266;52.608;13.260;2023-07-24T05:47:53;4.13;;;1.45;;
71462;SDS011;59266;52.608;13.260;2023-07-24T05:50:22;6.32;;;1.30;;
71462;SDS011;59266;52.608;13.260;2023-07-24T05:52:51;4.72;;;1.40;;
71462;SDS011;59266;52.608;13.260;2023-07-24T05:55:19;4.97;;;1.58;;
71462;SDS011;59266;52.608;13.260;2023-07-24T05:57:47;4.07;;;1.55;;
71462;SDS011;59266;52.608;13.260;2023-07-24T06:00:14;5.90;;;1.60;;
71462;SDS011;59266;52.608;13.260;2023-07-24T06:02:41;3.00;;;1.17;;
71462;SDS011;59266;52.608;13.260;2023-07-24T06:05:08;4.32;;;1.33;;
71462;SDS011;59266;52.608;13.260;2023-07-24T06:07:35;4.30;;;1.60;;
71462;SDS011;59266;52.608;13.260;2023-07-24T06:10:02;4.68;;;1.40;;
71462;SDS011;59266;52.608;13.260;2023-07-24T06:12:29;2.72;;;1.00;;
71462;SDS011;59266;52.608;13.260;2023-07-24T06:14:57;4.43;;;1.23;;
71462;SDS011;59266;52.608;13.260;2023-07-24T06:17:25;3.72;;;1.35;;
71462;SDS011;59266;52.608;13.260;2023-07-24T06:19:52;3.92;;;1.30;;
71462;SDS011;59266;52.608;13.260;2023-07-24T06:22:20;3.53;;;1.38;;
71462;SDS011;59266;52.608;13.260;2023-07-24T06:24:47;3.80;;;1.30;;
71462;SDS011;59266;52.608;13.260;2023-07-24T06:27:14;4.32;;;1.30;;
71462;SDS011;59266;52.608;13.260;2023-07-24T06:29:40;4.95;;;1.55;;
71462;SDS011;59266;52.608;13.260;2023-07-24T06:32:07;5.10;;;1.45;;
71462;SDS011;59266;52.608;13.260;2023-07-24T06:34:35;3.45;;;1.25;;
71462;SDS011;59266;52.608;13.260;2023-07-24T06:37:02;3.60;;;1.48;;
71462;SDS011;59266;52.608;13.260;2023-07-24T06:39:47;4.10;;;1.40;;
71462;SDS011;59266;52.608;13.260;2023-07-24T06:42:15;4.85;;;1.40;;
71462;SDS011;59266;52.608;13.260;2023-07-24T06:44:45;4.05;;;1.33;;
71462;SDS011;59266;52.608;13.260;2023-07-24T06:47:11;4.15;;;1.30;;
71462;SDS011;59266;52.608;13.260;2023-07-24T06:49:39;4.15;;;1.50;;
71462;SDS011;59266;52.608;13.260;2023-07-24T06:52:06;5.32;;;1.70;;
71462;SDS011;59266;52.608;13.260;2023-07-24T06:54:33;4.80;;;1.55;;
71462;SDS011;59266;52.608;13.260;2023-07-24T06:56:59;4.55;;;1.50;;
71462;SDS011;59266;52.608;13.260;2023-07-24T07:02:22;3.17;;;1.38;;
71462;SDS011;59266;52.608;13.260;2023-07-24T07:04:49;3.70;;;1.40;;
71462;SDS011;59266;52.608;13.260;2023-07-24T07:07:15;4.13;;;1.63;;
71462;SDS011;59266;52.608;13.260;2023-07-24T07:09:42;3.45;;;1.42;;
71462;SDS011;59266;52.608;13.260;2023-07-24T07:12:15;4.28;;;1.65;;
71462;SDS011;59266;52.608;13.260;2023-07-24T07:14:43;3.58;;;1.40;;
71462;SDS011;59266;52.608;13.260;2023-07-24T07:17:10;3.97;;;1.60;;
71462;SDS011;59266;52.608;13.260;2023-07-24T07:19:39;4.20;;;1.80;;
71462;SDS011;59266;52.608;13.260;2023-07-24T07:22:05;4.53;;;1.60;;
71462;SDS011;59266;52.608;13.260;2023-07-24T07:24:34;4.22;;;1.63;;
71462;SDS011;59266;52.608;13.260;2023-07-24T07:27:01;3.90;;;1.60;;
71462;SDS011;59266;52.608;13.260;2023-07-24T07:29:27;3.80;;;1.83;;
71462;SDS011;59266;52.608;13.260;2023-07-24T07:31:54;4.57;;;1.80;;
71462;SDS011;59266;52.608;13.260;2023-07-24T07:34:22;4.82;;;1.70;;
71462;SDS011;59266;52.608;13.260;2023-07-24T07:36:50;4.00;;;1.60;;
71462;SDS011;59266;52.608;13.260;2023-07-24T07:39:16;3.90;;;1.60;;
71462;SDS011;59266;52.608;13.260;2023-07-24T07:41:43;5.75;;;1.70;;
71462;SDS011;59266;52.608;13.260;2023-07-24T07:44:13;6.03;;;1.80;;
71462;SDS011;59266;52.608;13.260;2023-07-24T07:46:41;3.83;;;1.60;;
71462;SDS011;59266;52.608;13.260;2023-07-24T07:49:09;3.88;;;1.50;;
71462;SDS011;59266;52.608;13.260;2023-07-24T07:51:35;3.83;;;1.58;;
71462;SDS011;59266;52.608;13.260;2023-07-24T07:54:02;3.28;;;1.45;;
71462;SDS011;59266;52.608;13.260;2023-07-24T07:56:28;3.85;;;1.58;;
71462;SDS011;59266;52.608;13.260;2023-07-24T07:58:56;2.90;;;1.42;;
71462;SDS011;59266;52.608;13.260;2023-07-24T08:01:22;3.33;;;1.30;;
71462;SDS011;59266;52.608;13.260;2023-07-24T08:03:49;4.10;;;1.52;;
71462;SDS011;59266;52.608;13.260;2023-07-24T08:06:17;4.57;;;1.52;;
71462;SDS011;59266;52.608;13.260;2023-07-24T08:08:43;3.47;;;1.40;;
71462;SDS011;59266;52.608;13.260;2023-07-24T08:11:10;4.05;;;1.50;;
71462;SDS011;59266;52.608;13.260;2023-07-24T08:13:37;4.13;;;1.50;;
71462;SDS011;59266;52.608;13.260;2023-07-24T08:16:12;3.58;;;1.40;;
71462;SDS011;59266;52.608;13.260;2023-07-24T08:18:44;4.38;;;1.60;;
71462;SDS011;59266;52.608;13.260;2023-07-24T08:21:13;4.60;;;1.63;;
71462;SDS011;59266;52.608;13.260;2023-07-24T08:23:41;3.78;;;1.50;;
71462;SDS011;59266;52.608;13.260;2023-07-24T08:26:08;2.88;;;1.30;;
71462;SDS011;59266;52.608;13.260;2023-07-24T08:28:35;4.70;;;1.65;;
71462;SDS011;59266;52.608;13.260;2023-07-24T08:31:01;4.05;;;1.65;;
71462;SDS011;59266;52.608;13.260;2023-07-24T08:33:32;4.20;;;1.70;;
71462;SDS011;59266;52.608;13.260;2023-07-24T08:36:00;4.32;;;1.48;;
71462;SDS011;59266;52.608;13.260;2023-07-24T08:38:28;4.78;;;1.65;;
71462;SDS011;59266;52.608;13.260;2023-07-24T08:41:02;4.47;;;1.50;;
71462;SDS011;59266;52.608;13.260;2023-07-24T08:43:31;4.53;;;1.52;;
71462;SDS011;59266;52.608;13.260;2023-07-24T08:45:58;4.50;;;1.73;;
71462;SDS011;59266;52.608;13.260;2023-07-24T08:48:28;4.75;;;1.70;;
71462;SDS011;59266;52.608;13.260;2023-07-24T08:50:57;4.40;;;2.00;;
71462;SDS011;59266;52.608;13.260;2023-07-24T08:55:55;4.05;;;1.58;;
71462;SDS011;59266;52.608;13.260;2023-07-24T08:58:23;5.10;;;1.80;;
71462;SDS011;59266;52.608;13.260;2023-07-24T09:00:52;4.18;;;1.75;;
71462;SDS011;59266;52.608;13.260;2023-07-24T09:03:19;5.90;;;1.80;;
71462;SDS011;59266;52.608;13.260;2023-07-24T09:05:49;4.30;;;1.77;;
71462;SDS011;59266;52.608;13.260;2023-07-24T09:08:16;4.10;;;1.70;;
71462;SDS011;59266;52.608;13.260;2023-07-24T09:10:42;4.85;;;1.83;;
71462;SDS011;59266;52.608;13.260;2023-07-24T09:13:11;5.20;;;2.00;;
71462;SDS011;59266;52.608;13.260;2023-07-24T09:15:42;4.70;;;1.77;;
71462;SDS011;59266;52.608;13.260;2023-07-24T09:18:10;4.22;;;1.80;;
71462;SDS011;59266;52.608;13.260;2023-07-24T09:20:42;4.95;;;2.10;;
71462;SDS011;59266;52.608;13.260;2023-07-24T09:23:10;4.78;;;1.75;;
71462;SDS011;59266;52.608;13.260;2023-07-24T09:25:44;4.43;;;1.80;;
71462;SDS011;59266;52.608;13.260;2023-07-24T09:28:12;5.03;;;1.80;;
71462;SDS011;59266;52.608;13.260;2023-07-24T09:30:41;4.70;;;1.95;;
71462;SDS011;59266;52.608;13.260;2023-07-24T09:33:18;5.38;;;1.73;;
71462;SDS011;59266;52.608;13.260;2023-07-24T09:35:56;5.28;;;1.75;;
71462;SDS011;59266;52.608;13.260;2023-07-24T09:38:23;3.95;;;1.60;;
71462;SDS011;59266;52.608;13.260;2023-07-24T09:40:51;4.40;;;1.75;;
71462;SDS011;59266;52.608;13.260;2023-07-24T09:43:19;3.63;;;1.45;;
71462;SDS011;59266;52.608;13.260;2023-07-24T09:46:05;4.50;;;1.70;;
71462;SDS011;59266;52.608;13.260;2023-07-24T09:48:33;8.95;;;1.95;;
71462;SDS011;59266;52.608;13.260;2023-07-24T09:51:23;4.72;;;1.75;;
71462;SDS011;59266;52.608;13.260;2023-07-24T09:54:13;6.38;;;1.95;;
71462;SDS011;59266;52.608;13.260;2023-07-24T09:56:47;6.65;;;1.70;;
71462;SDS011;59266;52.608;13.260;2023-07-24T09:59:22;4.85;;;1.80;;
71462;SDS011;59266;52.608;13.260;2023-07-24T10:01:50;5.10;;;2.10;;
71462;SDS011;59266;52.608;13.260;2023-07-24T10:04:18;4.53;;;1.65;;
71462;SDS011;59266;52.608;13.260;2023-07-24T10:06:45;4.72;;;1.92;;
71462;SDS011;59266;52.608;13.260;2023-07-24T10:09:14;6.65;;;1.90;;
71462;SDS011;59266;52.608;13.260;2023-07-24T10:11:41;7.63;;;2.80;;
71462;SDS011;59266;52.608;13.260;2023-07-24T10:14:08;4.45;;;1.73;;
71462;SDS011;59266;52.608;13.260;2023-07-24T10:16:36;6.90;;;1.90;;
71462;SDS011;59266;52.608;13.260;2023-07-24T10:19:12;7.53;;;1.90;;
71462;SDS011;59266;52.608;13.260;2023-07-24T10:21:44;6.00;;;2.10;;
71462;SDS011;59266;52.608;13.260;2023-07-24T10:24:13;5.13;;;1.95;;
71462;SDS011;59266;52.608;13.260;2023-07-24T10:26:54;6.50;;;2.30;;
71462;SDS011;59266;52.608;13.260;2023-07-24T10:29:24;5.55;;;1.92;;
71462;SDS011;59266;52.608;13.260;2023-07-24T10:31:56;6.25;;;2.42;;
71462;SDS011;59266;52.608;13.260;2023-07-24T10:34:22;8.23;;;2.20;;
71462;SDS011;59266;52.608;13.260;2023-07-24T10:36:51;5.85;;;2.33;;
71462;SDS011;59266;52.608;13.260;2023-07-24T10:39:36;7.30;;;2.60;;
71462;SDS011;59266;52.608;13.260;2023-07-24T10:42:06;5.93;;;2.50;;
71462;SDS011;59266;52.608;13.260;2023-07-24T10:44:37;6.03;;;2.50;;
71462;SDS011;59266;52.608;13.260;2023-07-24T10:47:04;5.90;;;2.40;;
71462;SDS011;59266;52.608;13.260;2023-07-24T10:49:30;6.75;;;3.00;;
71462;SDS011;59266;52.608;13.260;2023-07-24T10:51:57;7.13;;;2.70;;
71462;SDS011;59266;52.608;13.260;2023-07-24T10:54:25;6.85;;;2.55;;
71462;SDS011;59266;52.608;13.260;2023-07-24T10:56:58;5.60;;;2.53;;
71462;SDS011;59266;52.608;13.260;2023-07-24T10:59:36;7.72;;;2.58;;
71462;SDS011;59266;52.608;13.260;2023-07-24T11:02:06;7.55;;;2.80;;
71462;SDS011;59266;52.608;13.260;2023-07-24T11:04:34;5.40;;;2.42;;
71462;SDS011;59266;52.608;13.260;2023-07-24T11:07:00;6.60;;;2.92;;
71462;SDS011;59266;52.608;13.260;2023-07-24T11:09:34;6.10;;;2.63;;
71462;SDS011;59266;52.608;13.260;2023-07-24T11:12:13;6.13;;;2.63;;
71462;SDS011;59266;52.608;13.260;2023-07-24T11:14:47;8.00;;;2.90;;
71462;SDS011;59266;52.608;13.260;2023-07-24T11:17:17;7.20;;;2.88;;
71462;SDS011;59266;52.608;13.260;2023-07-24T11:19:44;6.53;;;2.70;;
71462;SDS011;59266;52.608;13.260;2023-07-24T11:22:11;9.02;;;2.85;;
71462;SDS011;59266;52.608;13.260;2023-07-24T11:24:41;6.20;;;2.88;;
71462;SDS011;59266;52.608;13.260;2023-07-24T11:27:12;7.70;;;3.22;;
71462;SDS011;59266;52.608;13.260;2023-07-24T11:29:46;8.23;;;3.30;;
71462;SDS011;59266;52.608;13.260;2023-07-24T11:32:17;7.05;;;3.00;;
71462;SDS011;59266;52.608;13.260;2023-07-24T11:34:48;9.20;;;3.25;;
71462;SDS011;59266;52.608;13.260;2023-07-24T11:37:17;8.27;;;3.47;;
71462;SDS011;59266;52.608;13.260;2023-07-24T11:40:00;8.18;;;3.17;;
71462;SDS011;59266;52.608;13.260;2023-07-24T11:42:37;10.77;;;3.55;;
71462;SDS011;59266;52.608;13.260;2023-07-24T11:45:06;7.78;;;3.28;;
71462;SDS011;59266;52.608;13.260;2023-07-24T11:47:46;10.25;;;3.13;;
71462;SDS011;59266;52.608;13.260;2023-07-24T11:50:15;8.02;;;3.22;;
71462;SDS011;59266;52.608;13.260;2023-07-24T11:52:44;8.20;;;3.25;;
71462;SDS011;59266;52.608;13.260;2023-07-24T11:55:30;9.15;;;3.50;;
71462;SDS011;59266;52.608;13.260;2023-07-24T11:58:01;7.50;;;3.28;;
71462;SDS011;59266;52.608;13.260;2023-07-24T12:00:37;9.80;;;2.85;;
71462;SDS011;59266;52.608;13.260;2023-07-24T12:03:10;9.43;;;3.20;;
71462;SDS011;59266;52.608;13.260;2023-07-24T12:05:38;11.30;;;3.97;;
71462;SDS011;59266;52.608;13.260;2023-07-24T12:08:08;13.23;;;4.20;;
71462;SDS011;59266;52.608;13.260;2023-07-24T12:10:37;12.38;;;3.58;;
71462;SDS011;59266;52.608;13.260;2023-07-24T12:13:06;10.38;;;3.83;;
71462;SDS011;59266;52.608;13.260;2023-07-24T12:15:33;9.63;;;3.60;;
71462;SDS011;59266;52.608;13.260;2023-07-24T12:18:02;8.93;;;3.58;;
71462;SDS011;59266;52.608;13.260;2023-07-24T12:20:30;9.57;;;3.90;;
71462;SDS011;59266;52.608;13.260;2023-07-24T12:22:59;10.40;;;4.05;;
71462;SDS011;59266;52.608;13.260;2023-07-24T12:25:30;8.73;;;3.65;;
71462;SDS011;59266;52.608;13.260;2023-07-24T12:27:57;8.60;;;3.55;;
71462;SDS011;59266;52.608;13.260;2023-07-24T12:30:24;9.60;;;3.30;;
71462;SDS011;59266;52.608;13.260;2023-07-24T12:32:51;7.65;;;2.97;;
71462;SDS011;59266;52.608;13.260;2023-07-24T12:35:18;8.75;;;3.30;;
71462;SDS011;59266;52.608;13.260;2023-07-24T12:37:46;9.75;;;3.45;;
71462;SDS011;59266;52.608;13.260;2023-07-24T12:40:13;7.53;;;3.08;;
71462;SDS011;59266;52.608;13.260;2023-07-24T12:42:40;6.93;;;3.20;;
71462;SDS011;59266;52.608;13.260;2023-07-24T12:45:06;6.85;;;2.85;;
71462;SDS011;59266;52.608;13.260;2023-07-24T12:47:33;7.13;;;2.92;;
71462;SDS011;59266;52.608;13.260;2023-07-24T12:50:00;6.13;;;2.45;;
71462;SDS011;59266;52.608;13.260;2023-07-24T12:52:33;9.52;;;2.60;;
71462;SDS011;59266;52.608;13.260;2023-07-24T12:55:01;7.93;;;3.00;;
71462;SDS011;59266;52.608;13.260;2023-07-24T12:57:29;6.60;;;2.55;;
71462;SDS011;59266;52.608;13.260;2023-07-24T12:59:57;7.13;;;2.78;;
71462;SDS011;59266;52.608;13.260;2023-07-24T13:02:24;6.88;;;2.67;;
71462;SDS011;59266;52.608;13.260;2023-07-24T13:04:52;9.07;;;2.60;;
71462;SDS011;59266;52.608;13.260;2023-07-24T13:07:19;7.45;;;2.50;;
71462;SDS011;59266;52.608;13.260;2023-07-24T13:09:45;6.20;;;2.40;;
71462;SDS011;59266;52.608;13.260;2023-07-24T13:12:12;6.60;;;2.40;;
71462;SDS011;59266;52.608;13.260;2023-07-24T13:14:41;6.45;;;2.35;;
71462;SDS011;59266;52.608;13.260;2023-07-24T13:17:09;7.15;;;2.75;;
71462;SDS011;59266;52.608;13.260;2023-07-24T13:19:36;6.80;;;2.65;;
71462;SDS011;59266;52.608;13.260;2023-07-24T13:22:03;6.03;;;2.10;;
71462;SDS011;59266;52.608;13.260;2023-07-24T13:24:32;7.38;;;2.45;;
71462;SDS011;59266;52.608;13.260;2023-07-24T13:26:59;6.15;;;2.35;;
71462;SDS011;59266;52.608;13.260;2023-07-24T13:29:26;6.15;;;2.30;;
71462;SDS011;59266;52.608;13.260;2023-07-24T13:31:55;6.10;;;2.15;;
71462;SDS011;59266;52.608;13.260;2023-07-24T13:34:23;6.60;;;2.40;;
71462;SDS011;59266;52.608;13.260;2023-07-24T13:36:51;6.18;;;2.45;;
71462;SDS011;59266;52.608;13.260;2023-07-24T13:39:21;6.30;;;2.20;;
71462;SDS011;59266;52.608;13.260;2023-07-24T13:41:49;6.57;;;2.50;;
71462;SDS011;59266;52.608;13.260;2023-07-24T13:44:16;7.00;;;2.38;;
71462;SDS011;59266;52.608;13.260;2023-07-24T13:46:44;7.68;;;2.38;;
71462;SDS011;59266;52.608;13.260;2023-07-24T13:49:10;5.60;;;2.10;;
71462;SDS011;59266;52.608;13.260;2023-07-24T13:51:38;5.68;;;2.28;;
71462;SDS011;59266;52.608;13.260;2023-07-24T13:54:05;8.63;;;2.60;;
71462;SDS011;59266;52.608;13.260;2023-07-24T13:56:32;8.57;;;2.50;;
71462;SDS011;59266;52.608;13.260;2023-07-24T13:59:01;8.63;;;2.30;;
71462;SDS011;59266;52.608;13.260;2023-07-24T14:01:28;5.90;;;2.38;;
71462;SDS011;59266;52.608;13.260;2023-07-24T14:03:57;6.53;;;2.30;;
71462;SDS011;59266;52.608;13.260;2023-07-24T14:06:25;7.03;;;2.50;;
71462;SDS011;59266;52.608;13.260;2023-07-24T14:09:01;6.45;;;2.40;;
71462;SDS011;59266;52.608;13.260;2023-07-24T14:13:56;6.43;;;2.53;;
71462;SDS011;59266;52.608;13.260;2023-07-24T14:16:25;6.50;;;2.50;;
71462;SDS011;59266;52.608;13.260;2023-07-24T14:18:52;6.95;;;2.45;;
71462;SDS011;59266;52.608;13.260;2023-07-24T14:21:18;6.90;;;2.42;;
71462;SDS011;59266;52.608;13.260;2023-07-24T14:23:45;5.95;;;2.58;;
71462;SDS011;59266;52.608;13.260;2023-07-24T14:26:12;7.30;;;2.40;;
71462;SDS011;59266;52.608;13.260;2023-07-24T14:28:39;8.07;;;2.63;;
71462;SDS011;59266;52.608;13.260;2023-07-24T14:31:07;6.82;;;2.30;;
71462;SDS011;59266;52.608;13.260;2023-07-24T14:33:34;6.35;;;2.38;;
71462;SDS011;59266;52.608;13.260;2023-07-24T14:36:03;7.35;;;2.38;;
71462;SDS011;59266;52.608;13.260;2023-07-24T14:38:31;9.32;;;2.85;;
71462;SDS011;59266;52.608;13.260;2023-07-24T14:40:57;6.57;;;2.67;;
71462;SDS011;59266;52.608;13.260;2023-07-24T14:43:24;7.13;;;2.78;;
71462;SDS011;59266;52.608;13.260;2023-07-24T14:45:51;7.55;;;2.50;;
71462;SDS011;59266;52.608;13.260;2023-07-24T14:48:28;9.88;;;2.60;;
71462;SDS011;59266;52.608;13.260;2023-07-24T14:50:57;6.53;;;2.42;;
71462;SDS011;59266;52.608;13.260;2023-07-24T14:53:25;7.00;;;2.88;;